Madison, South Dakota
Current Conditions -  °F | °C
As of 5:50 AM on Wednesday 28 Jan 2015 (Local Time) from KMDS Reporting Station
Clear Clear  
Wind Chill: 20°   Ceiling: Unl
Heat Index: 32°   Visibility: 10mi
Dew Point: 32°   Wind: 21mph
Humidity: 100%   Direction: 170°S
Pressure: 29.78"   Gusts: 25mph
Location:  44.01°N, 97.11°W
Report Text: KMDS 281150Z AUTO 17018G22KT 10SM CLR 00/00 A2978 RMK AO2
Loading
Personal Weather Stations






























Interactive Weather Map New forecast layout! Learn more

10-Day Weather Forecast

Advertisements
Track Severe Weather on mobile